Time;durP1;ratioP1;P1;durP2;ratioP2;P2;SDS_P1;SDS_P2;PMS_P1;PMS_P2;Temp;Humidity;BMP_temperature;BMP_pressure;BME280_temperature;BME280_humidity;BME280_pressure;Samples;Min_cycle;Max_cycle;Signal;HPM_P1;HPM_P2
2021/05/08 00:02:03;;;;;;;11.83;3.70;;;;;;;16.80;63.01;100503.34;4974454;28;20134;-71
2021/05/08 00:04:30;;;;;;;7.33;3.83;;;;;;;16.79;62.95;100502.53;4980472;28;20491;-72
2021/05/08 00:06:58;;;;;;;12.13;3.63;;;;;;;16.77;62.70;100499.19;4982873;28;20058;-72
2021/05/08 00:09:26;;;;;;;11.70;4.30;;;;;;;16.79;62.87;100502.53;4979099;28;20039;-72
2021/05/08 00:11:55;;;;;;;7.00;3.57;;;;;;;16.81;62.82;100500.19;4979143;28;20483;-76
2021/05/08 00:14:23;;;;;;;16.98;4.60;;;;;;;16.78;62.98;100492.38;4979357;28;20046;-71
2021/05/08 00:16:49;;;;;;;17.23;4.77;;;;;;;16.73;63.00;100492.50;4984400;28;20407;-71
2021/05/08 00:19:15;;;;;;;12.20;3.87;;;;;;;16.54;62.74;100464.50;4978485;28;20100;-71
2021/05/08 00:21:42;;;;;;;10.47;4.80;;;;;;;16.68;63.02;100478.53;4976766;28;20126;-72
2021/05/08 00:24:09;;;;;;;18.67;4.00;;;;;;;16.74;63.00;100482.03;4980144;28;20046;-70
2021/05/08 00:26:35;;;;;;;11.03;4.03;;;;;;;16.67;62.86;100476.88;4972466;28;20567;-70
2021/05/08 00:29:01;;;;;;;21.67;4.10;;;;;;;16.72;62.88;100470.28;4982881;28;20047;-72
2021/05/08 00:31:28;;;;;;;17.40;5.73;;;;;;;16.59;63.02;100455.94;4977510;28;20050;-69
2021/05/08 00:33:54;;;;;;;10.13;4.77;;;;;;;16.70;63.27;100467.75;4981998;28;20046;-72
2021/05/08 00:36:21;;;;;;;17.90;6.47;;;;;;;16.68;63.02;100464.41;4981852;28;20046;-70
2021/05/08 00:38:47;;;;;;;12.40;4.83;;;;;;;16.70;63.24;100461.28;4979563;28;20051;-73
2021/05/08 00:41:13;;;;;;;9.47;4.33;;;;;;;16.71;63.25;100466.59;4977367;28;20393;-72
2021/05/08 00:43:40;;;;;;;12.53;4.90;;;;;;;16.48;62.81;100434.81;4980838;28;20053;-75
2021/05/08 00:46:06;;;;;;;11.70;4.83;;;;;;;16.72;62.97;100464.63;4976985;28;20060;-73
2021/05/08 00:48:34;;;;;;;8.77;4.87;;;;;;;16.68;62.82;100460.78;4976795;28;20140;-72
2021/05/08 00:51:00;;;;;;;13.50;4.77;;;;;;;16.61;63.02;100461.25;4978319;28;20042;-72
2021/05/08 00:53:27;;;;;;;10.00;4.40;;;;;;;16.55;62.99;100451.28;4979333;28;20050;-73
2021/05/08 00:55:56;;;;;;;9.43;5.30;;;;;;;16.47;63.44;100443.59;4973409;28;20077;-72
2021/05/08 00:58:22;;;;;;;15.27;4.93;;;;;;;16.42;63.26;100455.00;4976449;28;20156;-71
2021/05/08 01:00:52;;;;;;;12.90;5.33;;;;;;;16.42;63.40;100452.19;4975971;28;20042;-71
2021/05/08 01:03:19;;;;;;;14.40;5.47;;;;;;;16.43;63.38;100451.84;4976840;28;20051;-72
2021/05/08 01:05:45;;;;;;;12.67;5.67;;;;;;;16.41;63.55;100461.78;4980176;28;20173;-73
2021/05/08 01:08:12;;;;;;;13.80;5.17;;;;;;;16.44;63.40;100452.69;4978439;28;20426;-72
2021/05/08 01:10:39;;;;;;;11.60;5.40;;;;;;;16.43;63.33;100436.94;4973511;28;20053;-73
2021/05/08 01:13:05;;;;;;;12.63;5.60;;;;;;;16.44;63.31;100439.41;4976907;28;20043;-70
2021/05/08 01:15:32;;;;;;;19.80;5.60;;;;;;;16.29;63.54;100428.56;4975490;28;20057;-70
2021/05/08 01:17:58;;;;;;;15.53;5.27;;;;;;;16.45;63.63;100440.28;4979397;28;20043;-75
2021/05/08 01:20:25;;;;;;;15.37;5.43;;;;;;;16.47;63.53;100444.41;4977084;28;20053;-76
2021/05/08 01:22:52;;;;;;;18.47;5.63;;;;;;;16.50;63.60;100438.13;4978230;28;20046;-67
2021/05/08 01:25:23;;;;;;;12.23;5.10;;;;;;;16.44;63.50;100422.50;4976532;28;20074;-69
2021/05/08 01:27:55;;;;;;;12.40;5.50;;;;;;;16.49;63.30;100432.84;4974675;28;20105;-71
2021/05/08 01:30:33;;;;;;;10.13;4.53;;;;;;;16.40;63.63;100426.31;4978270;28;20081;-72
2021/05/08 01:33:01;;;;;;;18.93;5.73;;;;;;;16.30;63.70;100416.97;4972602;28;20049;-70
2021/05/08 01:35:29;;;;;;;18.93;5.13;;;;;;;16.37;63.56;100422.13;4978139;28;20133;-71
2021/05/08 01:37:55;;;;;;;12.83;5.17;;;;;;;16.39;63.41;100421.84;4976017;28;20057;-71
2021/05/08 01:40:36;;;;;;;16.63;4.57;;;;;;;16.29;63.76;100404.03;4983129;28;20090;-70
2021/05/08 01:43:03;;;;;;;11.47;4.60;;;;;;;16.33;63.58;100412.66;4979838;28;20100;-73
2021/05/08 01:45:30;;;;;;;13.83;4.93;;;;;;;16.28;63.63;100407.19;4982681;28;20438;-75
2021/05/08 01:47:57;;;;;;;12.70;5.80;;;;;;;16.23;64.00;100402.50;4975965;28;20058;-74
2021/05/08 01:50:25;;;;;;;18.77;6.07;;;;;;;16.16;63.91;100395.66;4981757;28;20047;-74
2021/05/08 01:52:52;;;;;;;12.43;5.50;;;;;;;16.06;64.05;100391.13;4976303;28;20125;-74
2021/05/08 01:55:39;;;;;;;16.40;5.47;;;;;;;15.98;64.47;100397.53;4977651;28;20042;-76
2021/05/08 01:58:05;;;;;;;9.93;5.03;;;;;;;15.90;64.64;100393.53;4976807;28;20042;-76
2021/05/08 02:00:33;;;;;;;8.23;4.30;;;;;;;15.71;65.24;100382.44;4979712;28;20046;-74
2021/05/08 02:03:00;;;;;;;11.07;4.70;;;;;;;15.57;65.49;100381.63;4976212;28;20046;-76
2021/05/08 02:05:29;;;;;;;15.30;4.83;;;;;;;15.17;65.61;100333.59;4980677;28;20564;-75
2021/05/08 02:07:55;;;;;;;10.03;4.70;;;;;;;15.40;65.77;100374.69;4972839;28;20367;-75
2021/05/08 02:10:22;;;;;;;14.33;6.00;;;;;;;15.45;65.51;100373.72;4978384;28;20048;-76
2021/05/08 02:12:48;;;;;;;13.40;4.43;;;;;;;15.41;65.68;100370.72;4974541;28;20050;-72
2021/05/08 02:15:16;;;;;;;10.53;4.40;;;;;;;15.29;65.91;100352.75;4977767;28;20049;-74
2021/05/08 02:17:43;;;;;;;11.30;4.53;;;;;;;15.21;66.38;100348.69;4973021;28;20126;-77
2021/05/08 02:20:15;;;;;;;10.23;4.80;;;;;;;15.20;66.37;100352.66;4978863;28;20050;-76
2021/05/08 02:22:43;;;;;;;12.33;5.07;;;;;;;15.21;66.14;100345.03;4981890;28;20074;-78
2021/05/08 02:25:11;;;;;;;16.63;5.07;;;;;;;15.15;66.21;100335.91;4978749;28;20079;-71
2021/05/08 02:27:39;;;;;;;13.13;4.97;;;;;;;15.08;66.13;100330.72;4972626;28;20404;-74
2021/05/08 02:30:09;;;;;;;14.53;4.80;;;;;;;15.13;66.15;100338.19;4971129;28;20043;-73
2021/05/08 02:32:36;;;;;;;10.10;4.30;;;;;;;15.02;66.35;100319.91;4978827;28;20054;-77
2021/05/08 02:35:05;;;;;;;10.00;4.83;;;;;;;14.98;66.75;100330.13;4974919;28;20055;-75
2021/05/08 02:37:31;;;;;;;12.97;4.50;;;;;;;14.79;67.11;100308.59;4979281;28;20488;-77
2021/05/08 02:39:58;;;;;;;10.17;4.87;;;;;;;14.90;66.92;100334.50;4975854;28;20043;-73
2021/05/08 02:42:24;;;;;;;10.73;4.40;;;;;;;14.73;67.57;100315.47;4973560;28;20051;-75
2021/05/08 02:44:52;;;;;;;9.63;4.90;;;;;;;14.76;67.89;100331.69;4980368;28;20042;-75
2021/05/08 02:47:19;;;;;;;12.53;4.23;;;;;;;14.73;68.08;100326.69;4979441;28;20056;-75
2021/05/08 02:49:50;;;;;;;11.90;4.17;;;;;;;14.64;68.48;100322.97;4976505;28;20074;-73
2021/05/08 02:52:17;;;;;;;13.60;4.23;;;;;;;14.46;68.73;100303.09;4980700;28;20047;-73
2021/05/08 02:54:45;;;;;;;12.93;5.30;;;;;;;14.61;68.54;100312.38;4977322;28;20043;-74
2021/05/08 02:57:11;;;;;;;19.23;4.37;;;;;;;14.56;68.77;100318.91;4972574;28;20050;-75
2021/05/08 02:59:38;;;;;;;11.53;4.00;;;;;;;14.56;68.83;100324.53;4980445;28;20443;-73
2021/05/08 03:02:05;;;;;;;13.10;4.57;;;;;;;14.59;68.63;100317.47;4978110;28;20039;-71
2021/05/08 03:04:32;;;;;;;10.87;5.00;;;;;;;14.62;68.60;100308.41;4973992;28;20439;-71
2021/05/08 03:07:04;;;;;;;11.80;4.90;;;;;;;14.60;68.56;100314.34;4979802;28;20047;-70
2021/05/08 03:09:31;;;;;;;11.77;5.30;;;;;;;14.62;68.53;100303.59;4975155;28;20066;-72
2021/05/08 03:12:00;;;;;;;14.77;4.60;;;;;;;14.63;68.60;100305.28;4976092;28;20054;-75
2021/05/08 03:14:27;;;;;;;8.93;3.67;;;;;;;14.62;68.57;100306.41;4977443;28;20046;-74
2021/05/08 03:17:04;;;;;;;13.63;4.60;;;;;;;14.52;68.54;100288.94;4976473;28;20050;-71
2021/05/08 03:19:33;;;;;;;13.40;4.83;;;;;;;14.63;68.41;100312.88;4984161;28;20105;-72
2021/05/08 03:22:04;;;;;;;10.33;4.63;;;;;;;14.59;68.40;100304.22;4978120;28;20057;-74
2021/05/08 03:24:31;;;;;;;11.83;5.03;;;;;;;14.52;68.53;100294.56;4981656;28;20069;-73
2021/05/08 03:26:58;;;;;;;10.77;3.97;;;;;;;14.37;68.55;100288.09;4979794;28;20051;-73
2021/05/08 03:29:25;;;;;;;11.17;4.83;;;;;;;14.35;68.73;100295.16;4977893;28;20046;-72
2021/05/08 03:31:51;;;;;;;10.40;4.40;;;;;;;14.30;68.96;100293.31;4977791;28;20046;-72
2021/05/08 03:34:18;;;;;;;8.53;5.27;;;;;;;14.20;68.99;100299.13;4963062;28;20258;-74
2021/05/08 03:36:44;;;;;;;14.80;5.20;;;;;;;14.10;69.44;100286.09;4976923;28;20088;-73
2021/05/08 03:39:13;;;;;;;12.90;6.23;;;;;;;13.97;69.49;100286.91;4981598;28;20407;-73
2021/05/08 03:41:39;;;;;;;18.63;4.90;;;;;;;13.94;69.72;100279.13;4978772;28;20506;-74
2021/05/08 03:44:08;;;;;;;11.57;3.90;;;;;;;13.98;69.51;100286.63;4974441;28;20050;-74
2021/05/08 03:46:35;;;;;;;11.93;4.53;;;;;;;13.96;69.57;100283.28;4981581;28;20093;-74
2021/05/08 03:49:01;;;;;;;9.40;3.93;;;;;;;14.04;69.10;100283.72;4980437;28;20841;-76
2021/05/08 03:51:28;;;;;;;10.03;4.07;;;;;;;13.90;69.26;100259.25;4981741;28;20506;-76
2021/05/08 03:53:55;;;;;;;8.57;4.20;;;;;;;13.95;69.61;100273.22;4975826;28;20049;-72
2021/05/08 03:56:21;;;;;;;8.50;5.13;;;;;;;13.88;69.71;100255.09;4977418;28;20047;-73
2021/05/08 03:58:48;;;;;;;15.00;6.50;;;;;;;13.73;70.27;100251.44;4982366;28;20047;-77
2021/05/08 04:01:15;;;;;;;10.73;4.60;;;;;;;13.74;70.93;100269.09;4983274;28;20057;-77
2021/05/08 04:03:42;;;;;;;10.00;5.60;;;;;;;13.75;70.86;100273.59;4979456;28;20626;-76
2021/05/08 04:06:08;;;;;;;9.03;5.63;;;;;;;13.78;70.76;100258.94;4976770;28;20042;-77
2021/05/08 04:08:37;;;;;;;10.50;3.83;;;;;;;13.76;70.85;100261.22;4976067;28;20050;-73
2021/05/08 04:11:03;;;;;;;10.20;4.83;;;;;;;13.70;71.30;100254.03;4974663;28;20051;-74
2021/05/08 04:13:29;;;;;;;15.63;4.07;;;;;;;13.65;71.75;100257.78;4974073;28;20043;-75
2021/05/08 04:15:55;;;;;;;6.57;3.40;;;;;;;13.33;71.53;100198.88;4979650;28;20806;-76
2021/05/08 04:18:23;;;;;;;10.33;4.30;;;;;;;13.67;71.59;100247.03;4975711;28;20069;-76
2021/05/08 04:20:50;;;;;;;12.60;5.07;;;;;;;13.62;71.58;100235.94;4985075;28;20046;-77
2021/05/08 04:23:17;;;;;;;9.53;4.60;;;;;;;13.68;71.68;100237.50;4981132;28;20668;-75
2021/05/08 04:25:43;;;;;;;11.73;4.90;;;;;;;13.75;71.09;100248.34;4973895;28;20070;-77
2021/05/08 04:28:10;;;;;;;12.43;5.63;;;;;;;13.75;71.32;100234.31;4974511;28;20502;-75
2021/05/08 04:30:38;;;;;;;11.63;4.70;;;;;;;13.78;71.00;100242.09;4974022;28;20564;-73
2021/05/08 04:33:19;;;;;;;15.93;4.77;;;;;;;13.84;70.67;100238.03;4973713;28;20678;-73
2021/05/08 04:35:46;;;;;;;9.93;3.90;;;;;;;13.84;70.68;100245.63;4974573;28;20133;-74
2021/05/08 04:38:12;;;;;;;12.47;5.20;;;;;;;13.85;70.49;100242.53;4987491;28;20472;-74
2021/05/08 04:40:40;;;;;;;11.63;5.10;;;;;;;13.88;70.28;100236.28;4981540;28;20133;-70
2021/05/08 04:43:07;;;;;;;12.93;4.47;;;;;;;13.92;70.23;100233.69;4974650;28;20122;-71
2021/05/08 04:45:34;;;;;;;12.00;5.07;;;;;;;13.88;70.46;100235.44;4978837;28;20050;-73
2021/05/08 04:48:06;;;;;;;10.07;4.83;;;;;;;13.88;70.09;100227.88;4981359;28;20416;-74
2021/05/08 04:50:35;;;;;;;15.67;4.90;;;;;;;13.86;69.74;100206.88;4976188;28;20128;-75
2021/05/08 04:53:01;;;;;;;12.67;5.77;;;;;;;13.81;70.08;100210.63;4978054;28;20589;-71
2021/05/08 04:55:27;;;;;;;9.40;4.60;;;;;;;13.91;70.02;100227.25;4974879;28;20050;-74
2021/05/08 04:57:54;;;;;;;8.97;4.83;;;;;;;13.88;70.11;100225.06;4972512;28;20039;-74
2021/05/08 05:00:20;;;;;;;13.60;4.90;;;;;;;13.84;70.50;100224.00;4973324;28;22301;-73
2021/05/08 05:02:47;;;;;;;8.27;4.03;;;;;;;13.86;70.19;100215.28;4981150;28;20129;-74
2021/05/08 05:05:18;;;;;;;14.33;5.77;;;;;;;13.82;70.26;100215.06;4975562;28;20397;-76
2021/05/08 05:07:45;;;;;;;12.13;4.97;;;;;;;13.85;70.17;100216.44;4984391;28;20105;-75
2021/05/08 05:10:12;;;;;;;9.93;4.90;;;;;;;13.89;69.85;100209.88;4981615;28;20203;-73
2021/05/08 05:12:42;;;;;;;9.63;5.10;;;;;;;13.95;69.69;100214.25;4976488;28;20042;-72
2021/05/08 05:15:09;;;;;;;11.60;5.40;;;;;;;14.03;69.25;100214.66;4979343;28;20053;-71
2021/05/08 05:17:36;;;;;;;11.17;5.40;;;;;;;14.08;69.16;100206.94;4982141;28;20054;-73
2021/05/08 05:20:06;;;;;;;15.40;4.80;;;;;;;14.15;68.85;100203.72;4972931;28;20492;-76
2021/05/08 05:22:32;;;;;;;11.90;5.18;;;;;;;14.05;68.92;100190.75;4981095;28;20042;-69
2021/05/08 05:24:58;;;;;;;12.10;4.80;;;;;;;14.13;68.87;100204.06;4974159;28;20051;-71
2021/05/08 05:27:25;;;;;;;13.37;5.37;;;;;;;14.13;68.81;100192.81;4979104;28;20050;-73
2021/05/08 05:29:53;;;;;;;11.10;3.93;;;;;;;14.08;69.12;100203.31;4974776;28;20046;-71
2021/05/08 05:32:19;;;;;;;14.17;5.23;;;;;;;14.05;69.09;100207.59;4977270;28;20058;-70
2021/05/08 05:34:45;;;;;;;9.27;4.77;;;;;;;14.01;69.26;100209.34;4976767;28;20098;-69
2021/05/08 05:37:12;;;;;;;10.87;4.90;;;;;;;13.97;69.31;100199.91;4976291;28;20489;-68
2021/05/08 05:39:38;;;;;;;15.13;5.03;;;;;;;13.93;69.43;100210.09;4984509;28;20046;-69
2021/05/08 05:42:05;;;;;;;8.33;4.13;;;;;;;13.91;69.24;100199.19;4975348;28;20149;-69
2021/05/08 05:44:31;;;;;;;7.10;3.40;;;;;;;13.89;69.26;100204.25;4976979;28;20129;-76
2021/05/08 05:46:57;;;;;;;14.17;4.87;;;;;;;13.80;69.74;100214.53;4983748;28;20050;-77
2021/05/08 05:49:24;;;;;;;15.47;4.97;;;;;;;13.78;69.85;100216.84;4977505;28;20137;-76
2021/05/08 05:51:50;;;;;;;9.37;5.03;;;;;;;13.75;70.12;100214.66;4978832;28;20039;-65
2021/05/08 05:54:20;;;;;;;11.32;4.35;;;;;;;13.71;70.28;100219.22;4978721;28;20047;-75
2021/05/08 05:56:46;;;;;;;13.10;4.20;;;;;;;13.67;70.24;100204.13;4979823;28;20047;-67
2021/05/08 05:59:13;;;;;;;7.73;4.10;;;;;;;13.76;70.14;100219.13;4974642;28;20794;-74
2021/05/08 06:01:39;;;;;;;9.90;3.83;;;;;;;13.84;70.10;100215.56;4973225;28;20065;-70
2021/05/08 06:04:05;;;;;;;10.93;4.90;;;;;;;13.55;69.83;100159.75;4975761;28;20065;-78
2021/05/08 06:06:33;;;;;;;8.13;3.87;;;;;;;13.97;69.81;100216.75;4981232;28;20126;-71
2021/05/08 06:08:59;;;;;;;9.13;4.40;;;;;;;13.99;69.65;100208.84;4972431;28;20057;-71
2021/05/08 06:11:25;;;;;;;9.60;4.90;;;;;;;14.17;69.29;100213.50;4975993;28;20050;-73
2021/05/08 06:13:52;;;;;;;12.00;4.03;;;;;;;14.40;68.95;100220.06;4982368;28;20054;-77
2021/05/08 06:16:18;;;;;;;15.33;5.63;;;;;;;14.42;68.91;100216.91;4976437;28;20046;-73
2021/05/08 06:18:44;;;;;;;9.77;4.80;;;;;;;14.39;69.06;100223.16;4978730;28;20090;-74
2021/05/08 06:21:10;;;;;;;12.10;4.73;;;;;;;14.34;69.09;100229.72;4973545;28;20039;-74
2021/05/08 06:23:37;;;;;;;11.97;5.27;;;;;;;14.35;68.94;100224.94;4974014;28;20101;-74
2021/05/08 06:26:03;;;;;;;8.07;4.77;;;;;;;14.44;68.78;100223.88;4978326;28;20053;-78
2021/05/08 06:28:30;;;;;;;9.53;4.03;;;;;;;14.50;68.56;100224.66;4975924;28;20046;-76
2021/05/08 06:30:56;;;;;;;7.57;4.07;;;;;;;14.61;68.35;100225.25;4979520;28;20085;-72
2021/05/08 06:33:24;;;;;;;9.03;4.90;;;;;;;14.73;68.46;100235.94;4960363;28;20129;-74
2021/05/08 06:35:51;;;;;;;11.30;4.90;;;;;;;14.96;67.94;100232.00;4981393;28;20449;-74
2021/05/08 06:38:18;;;;;;;12.20;4.20;;;;;;;15.10;67.65;100227.16;4977657;28;20046;-73
2021/05/08 06:40:44;;;;;;;12.00;4.47;;;;;;;15.17;67.15;100223.91;4980595;28;20058;-74
2021/05/08 06:43:11;;;;;;;12.70;4.60;;;;;;;15.20;67.34;100226.06;4981315;28;20051;-75
2021/05/08 06:45:37;;;;;;;13.63;5.43;;;;;;;15.23;67.22;100230.25;4979900;28;20046;-73
2021/05/08 06:48:04;;;;;;;10.57;4.97;;;;;;;15.21;66.98;100204.41;4987311;28;20062;-74
2021/05/08 06:50:30;;;;;;;11.97;4.33;;;;;;;15.40;66.98;100231.19;4977084;28;20046;-74
2021/05/08 06:52:56;;;;;;;8.67;5.20;;;;;;;15.56;66.65;100230.81;4975530;28;20537;-75
2021/05/08 06:55:23;;;;;;;8.27;5.70;;;;;;;15.69;66.44;100227.09;4981580;28;20054;-74
2021/05/08 06:57:50;;;;;;;9.40;5.63;;;;;;;15.86;66.05;100210.28;4978317;28;20046;-75
2021/05/08 07:00:19;;;;;;;11.10;4.23;;;;;;;16.06;65.83;100231.41;4976463;28;20138;-74
2021/05/08 07:02:45;;;;;;;16.40;6.13;;;;;;;16.00;65.45;100227.09;4979107;28;20046;-74
2021/05/08 07:05:12;;;;;;;9.77;4.87;;;;;;;16.33;64.89;100230.31;4975114;28;20058;-76
2021/05/08 07:07:38;;;;;;;9.03;5.27;;;;;;;16.58;64.57;100225.06;4979448;28;20058;-74
2021/05/08 07:10:06;;;;;;;10.43;5.53;;;;;;;16.65;63.97;100204.84;4977761;28;20141;-74
2021/05/08 07:12:32;;;;;;;9.57;5.53;;;;;;;16.94;63.28;100222.00;4982129;28;20074;-76
2021/05/08 07:14:58;;;;;;;13.53;6.50;;;;;;;16.98;62.94;100225.00;4987151;28;20053;-77
2021/05/08 07:17:25;;;;;;;9.35;5.00;;;;;;;16.98;62.65;100227.81;4981403;28;20464;-78
2021/05/08 07:19:54;;;;;;;8.03;3.67;;;;;;;17.04;62.36;100220.84;4979129;28;20051;-78
2021/05/08 07:22:20;;;;;;;7.65;4.43;;;;;;;16.77;62.26;100172.06;4985538;28;20053;-78
2021/05/08 07:24:47;;;;;;;10.85;5.47;;;;;;;17.21;61.78;100205.91;4979809;28;20053;-77
2021/05/08 07:27:13;;;;;;;10.63;5.50;;;;;;;17.40;61.43;100199.88;4981604;28;20081;-77
2021/05/08 07:29:41;;;;;;;9.48;6.35;;;;;;;17.73;60.78;100208.59;4979884;28;20464;-76
2021/05/08 07:32:07;;;;;;;11.35;5.03;;;;;;;18.02;60.67;100215.50;4982776;28;20054;-78
2021/05/08 07:34:34;;;;;;;14.43;6.32;;;;;;;18.20;60.37;100217.09;4981094;28;20130;-77
2021/05/08 07:37:00;;;;;;;12.27;5.47;;;;;;;18.30;59.65;100218.72;4981857;28;20043;-77
2021/05/08 07:39:26;;;;;;;8.88;5.05;;;;;;;18.42;59.36;100207.50;4979549;28;20177;-77
2021/05/08 07:41:53;;;;;;;8.07;4.70;;;;;;;18.67;58.91;100217.81;4973996;28;20058;-77
2021/05/08 07:44:19;;;;;;;9.88;5.13;;;;;;;18.96;58.41;100209.66;4980557;28;20054;-76
2021/05/08 07:46:45;;;;;;;10.45;4.82;;;;;;;19.34;58.37;100203.78;4977188;28;20049;-72
2021/05/08 07:49:12;;;;;;;9.73;4.72;;;;;;;19.60;57.37;100197.88;4981023;28;20050;-74
2021/05/08 07:51:38;;;;;;;7.18;4.63;;;;;;;19.59;56.65;100213.22;4979945;28;20046;-72
2021/05/08 07:54:05;;;;;;;10.57;5.40;;;;;;;19.57;56.94;100199.38;4980869;28;20525;-72
2021/05/08 07:56:35;;;;;;;10.20;5.53;;;;;;;19.51;56.82;100188.63;4982492;28;20054;-76
2021/05/08 07:59:02;;;;;;;9.63;4.82;;;;;;;19.50;56.81;100216.13;4977708;28;20046;-74
2021/05/08 08:01:29;;;;;;;13.48;5.75;;;;;;;19.45;56.90;100199.34;4978997;28;20168;-74
2021/05/08 08:03:56;;;;;;;14.18;4.97;;;;;;;19.54;56.82;100214.25;4979625;28;20070;-74
2021/05/08 08:06:25;;;;;;;9.40;4.00;;;;;;;19.96;56.74;100194.28;4960338;28;20120;-70
2021/05/08 08:08:51;;;;;;;10.60;5.38;;;;;;;20.17;55.59;100213.19;4975475;28;20068;-74
2021/05/08 08:11:17;;;;;;;11.32;5.18;;;;;;;20.24;55.31;100207.78;4977644;28;20045;-74
2021/05/08 08:13:43;;;;;;;8.60;5.20;;;;;;;20.60;54.94;100215.47;4977818;28;20047;-74
2021/05/08 08:16:10;;;;;;;6.57;4.45;;;;;;;20.88;54.84;100209.03;4984386;28;20360;-78
2021/05/08 08:18:36;;;;;;;7.30;4.45;;;;;;;21.19;53.91;100211.19;4979235;28;20047;-78
2021/05/08 08:21:05;;;;;;;11.75;4.20;;;;;;;21.40;53.71;100197.66;4980199;28;20046;-76
2021/05/08 08:23:32;;;;;;;7.00;3.42;;;;;;;21.47;53.55;100202.69;4978527;28;20043;-74
2021/05/08 08:25:58;;;;;;;10.10;3.95;;;;;;;21.54;52.68;100205.75;4981056;28;20046;-74
2021/05/08 08:28:25;;;;;;;11.73;5.07;;;;;;;21.57;52.42;100198.50;4981502;28;20058;-74
2021/05/08 08:30:51;;;;;;;10.80;4.45;;;;;;;21.51;52.73;100204.47;4986400;28;20046;-71
2021/05/08 08:33:20;;;;;;;7.40;4.20;;;;;;;21.37;52.72;100172.81;4974406;28;20042;-72
2021/05/08 08:35:47;;;;;;;9.10;4.47;;;;;;;21.96;51.97;100211.75;4973586;28;20094;-73
2021/05/08 08:38:14;;;;;;;7.15;3.70;;;;;;;22.34;51.42;100201.78;4977856;28;20089;-73
2021/05/08 08:40:44;;;;;;;5.70;3.40;;;;;;;22.57;50.64;100199.09;4973628;28;20082;-71
2021/05/08 08:43:11;;;;;;;8.50;3.45;;;;;;;22.74;50.58;100202.72;4973525;28;20043;-72
2021/05/08 08:45:37;;;;;;;11.27;3.20;;;;;;;22.78;49.90;100204.44;4973306;28;20101;-72
2021/05/08 08:48:04;;;;;;;6.72;3.10;;;;;;;22.62;49.79;100195.13;4975658;28;20077;-72
2021/05/08 08:50:35;;;;;;;11.10;3.40;;;;;;;22.47;49.70;100189.09;4973136;28;20047;-72
2021/05/08 08:53:08;;;;;;;9.57;5.45;;;;;;;22.30;49.61;100185.81;4973167;28;20467;-72
2021/05/08 08:55:35;;;;;;;6.70;3.67;;;;;;;22.19;49.85;100189.22;4973502;28;20047;-71
2021/05/08 08:58:05;;;;;;;4.30;2.83;;;;;;;22.64;49.46;100182.16;4973463;28;20082;-72
2021/05/08 09:00:32;;;;;;;6.60;2.95;;;;;;;23.15;48.96;100179.25;4973358;28;20051;-71
2021/05/08 09:03:01;;;;;;;6.53;2.97;;;;;;;23.38;48.33;100181.31;4974493;28;20121;-73
2021/05/08 09:05:27;;;;;;;5.70;3.08;;;;;;;23.54;48.62;100184.09;4972454;28;20050;-72
2021/05/08 09:08:00;;;;;;;6.47;1.90;;;;;;;23.83;47.75;100183.47;4974008;28;20054;-71
2021/05/08 09:10:30;;;;;;;4.00;2.40;;;;;;;23.93;47.16;100184.03;4980335;28;20404;-71
2021/05/08 09:12:58;;;;;;;6.93;2.95;;;;;;;24.21;46.11;100175.97;4973318;28;20484;-71
2021/05/08 09:15:28;;;;;;;5.70;2.50;;;;;;;24.18;46.23;100173.88;4972899;28;20502;-72
2021/05/08 09:17:54;;;;;;;;;;;;;;;24.20;47.97;100164.91;4972890;28;20047;-72
2021/05/08 09:20:23;;;;;;;2.30;1.33;;;;;;;24.77;44.67;100177.25;4976860;28;19972;-72
2021/05/08 09:22:53;;;;;;;4.60;1.85;;;;;;;24.90;44.41;100178.66;4973160;28;20038;-71
2021/05/08 09:25:20;;;;;;;2.13;1.25;;;;;;;24.90;43.43;100157.84;4973310;28;20377;-72
2021/05/08 09:27:52;;;;;;;5.85;1.38;;;;;;;24.87;43.32;100164.34;4972352;28;20042;-71
2021/05/08 09:30:24;;;;;;;2.80;1.30;;;;;;;24.84;42.63;100177.34;4972989;28;20058;-71
2021/05/08 09:32:55;;;;;;;5.05;1.92;;;;;;;24.80;42.65;100168.72;4972188;28;20496;-72
2021/05/08 09:35:23;;;;;;;4.55;1.77;;;;;;;24.96;42.67;100162.03;4972902;28;20082;-73
2021/05/08 09:38:06;;;;;;;4.00;1.40;;;;;;;24.77;42.69;100155.22;4978087;28;20481;-71
2021/05/08 09:40:34;;;;;;;3.30;1.48;;;;;;;24.95;42.01;100161.16;4977260;28;20211;-71
2021/05/08 09:43:00;;;;;;;6.15;1.60;;;;;;;25.15;41.81;100159.00;4972453;28;20062;-71
2021/05/08 09:45:27;;;;;;;3.55;1.60;;;;;;;25.17;41.02;100150.88;4972482;28;20058;-72
2021/05/08 09:47:54;;;;;;;3.30;1.55;;;;;;;25.64;40.77;100152.25;4971979;28;20055;-71
2021/05/08 09:50:23;;;;;;;6.18;1.90;;;;;;;26.00;40.23;100153.41;4972476;28;20057;-72
2021/05/08 09:52:55;;;;;;;6.88;1.98;;;;;;;26.36;39.65;100159.44;4972937;28;20053;-72
2021/05/08 09:55:23;;;;;;;3.00;1.95;;;;;;;26.03;39.56;100154.66;4977554;28;20074;-73
2021/05/08 09:58:07;;;;;;;4.65;1.90;;;;;;;25.50;40.58;100152.06;4972229;28;20551;-72
2021/05/08 10:00:39;;;;;;;7.03;2.63;;;;;;;25.20;41.36;100152.97;4972346;28;20046;-71
2021/05/08 10:03:13;;;;;;;5.38;1.80;;;;;;;25.44;40.58;100139.38;4971940;28;20051;-71
2021/05/08 10:05:50;;;;;;;3.10;1.70;;;;;;;25.65;40.23;100139.56;4972258;28;20090;-72
2021/05/08 10:08:17;;;;;;;4.45;1.98;;;;;;;25.38;40.33;100161.75;4975558;28;20051;-72
2021/05/08 10:10:43;;;;;;;3.75;1.63;;;;;;;25.44;40.59;100162.22;4972614;28;20055;-70
2021/05/08 10:13:12;;;;;;;3.65;1.95;;;;;;;25.40;40.13;100147.91;4972637;28;20054;-71
2021/05/08 10:15:42;;;;;;;5.15;1.65;;;;;;;25.00;40.14;100146.56;4970184;28;20043;-70
2021/05/08 10:18:11;;;;;;;3.75;1.73;;;;;;;24.90;40.56;100146.44;4972100;28;20055;-70
2021/05/08 10:20:40;;;;;;;6.63;1.70;;;;;;;24.54;40.66;100140.22;4954958;28;20408;-71
2021/05/08 10:23:10;;;;;;;5.20;1.85;;;;;;;24.85;40.59;100150.44;4972361;28;20047;-71
2021/05/08 10:25:38;;;;;;;2.45;1.25;;;;;;;24.76;39.80;100158.47;4972560;28;20047;-72
2021/05/08 10:28:05;;;;;;;4.97;1.40;;;;;;;24.66;40.08;100148.56;4977444;28;20049;-72
2021/05/08 10:30:34;;;;;;;3.30;1.20;;;;;;;24.67;40.17;100155.09;4972277;28;20570;-70
2021/05/08 10:33:07;;;;;;;4.35;1.30;;;;;;;24.12;40.05;100062.09;4972014;28;20054;-71
2021/05/08 10:35:47;;;;;;;3.08;1.33;;;;;;;24.66;40.04;100136.31;4970824;28;20162;-71
2021/05/08 10:38:23;;;;;;;3.25;1.35;;;;;;;25.03;39.07;100137.22;4972871;28;20047;-70
2021/05/08 10:41:10;;;;;;;2.15;1.52;;;;;;;25.45;38.96;100138.94;4986155;28;20406;-74
2021/05/08 10:43:43;;;;;;;1.75;1.00;;;;;;;25.72;37.96;100128.22;4975140;28;20051;-71
2021/05/08 10:46:17;;;;;;;3.25;1.38;;;;;;;25.98;38.36;100129.25;4987935;28;20414;-71
2021/05/08 10:49:06;;;;;;;2.80;1.40;;;;;;;26.18;37.58;100130.66;4971651;28;20055;-72
2021/05/08 10:51:59;;;;;;;3.03;1.10;;;;;;;26.20;37.63;100121.69;4971831;28;20459;-71
2021/05/08 10:54:39;;;;;;;2.20;1.10;;;;;;;26.43;36.86;100121.44;4974874;28;20051;-73
2021/05/08 10:57:24;;;;;;;2.28;0.98;;;;;;;26.58;37.14;100113.78;4971516;28;20478;-72
2021/05/08 11:00:09;;;;;;;3.10;0.98;;;;;;;26.63;36.45;100119.13;4971528;28;20051;-71
2021/05/08 11:02:42;;;;;;;2.67;1.05;;;;;;;26.83;36.73;100109.00;4979159;28;20050;-72
2021/05/08 11:05:26;;;;;;;2.92;1.08;;;;;;;27.27;35.77;100115.75;4972103;28;20459;-72
2021/05/08 11:07:53;;;;;;;3.63;1.17;;;;;;;27.39;35.37;100118.25;4973363;28;20038;-73
2021/05/08 11:10:34;;;;;;;5.07;1.33;;;;;;;27.39;35.78;100113.34;4978824;28;20539;-72
2021/05/08 11:13:14;;;;;;;1.90;1.40;;;;;;;27.52;35.29;100105.19;4971474;28;20060;-71
2021/05/08 11:16:03;;;;;;;2.28;1.15;;;;;;;27.59;35.27;100115.81;4955554;28;20460;-71
2021/05/08 11:18:29;;;;;;;3.95;1.73;;;;;;;27.44;34.96;100112.13;4971563;28;20221;-73
2021/05/08 11:21:08;;;;;;;2.55;1.10;;;;;;;27.72;35.57;100090.44;4976875;28;20133;-72
2021/05/08 11:23:51;;;;;;;4.45;1.25;;;;;;;27.79;34.98;100090.47;4970164;28;20399;-71
2021/05/08 11:26:28;;;;;;;3.95;1.27;;;;;;;27.71;34.88;100100.28;4974416;28;20130;-73
2021/05/08 11:29:05;;;;;;;1.98;1.10;;;;;;;27.71;35.16;100092.50;4973772;28;20053;-72